createdAt,value
2022-11-09T00:01:03.954Z,100336.59
2022-11-09T00:03:31.104Z,100328.81
2022-11-09T00:05:59.464Z,100326.19
2022-11-09T00:08:26.670Z,100327.91
2022-11-09T00:10:53.825Z,100329.66
2022-11-09T00:13:21.505Z,100335.72
2022-11-09T00:15:48.764Z,100331.38
2022-11-09T00:18:15.840Z,100331.41
2022-11-09T00:20:47.610Z,100339.22
2022-11-09T00:23:16.638Z,100338.41
2022-11-09T00:25:44.131Z,100341.06
2022-11-09T00:28:11.067Z,100335.88
2022-11-09T00:30:38.101Z,100336.75
2022-11-09T00:33:05.287Z,100339.41
2022-11-09T00:35:32.690Z,100342.03
2022-11-09T00:37:59.648Z,100341.13
2022-11-09T00:40:26.671Z,100336.78
2022-11-09T00:42:53.784Z,100348.06
2022-11-09T00:45:20.687Z,100334.16
2022-11-09T00:47:47.584Z,100350.63
2022-11-09T00:50:14.639Z,100344.56
2022-11-09T00:52:41.481Z,100345.41
2022-11-09T00:55:08.827Z,100350.59
2022-11-09T00:57:35.846Z,100348.00
2022-11-09T01:00:02.857Z,100339.25
2022-11-09T01:02:30.694Z,100342.72
2022-11-09T01:04:58.182Z,100332.28
2022-11-09T01:07:26.042Z,100337.47
2022-11-09T01:09:52.931Z,100336.59
2022-11-09T01:12:19.981Z,100331.38
2022-11-09T01:14:47.128Z,100337.44
2022-11-09T01:17:14.178Z,100338.28
2022-11-09T01:19:41.171Z,100331.31
2022-11-09T01:22:08.481Z,100334.75
2022-11-09T01:24:35.681Z,100332.16
2022-11-09T01:27:02.625Z,100334.75
2022-11-09T01:29:30.651Z,100333.03
2022-11-09T01:31:57.736Z,100341.72
2022-11-09T01:34:25.124Z,100336.47
2022-11-09T01:36:53.508Z,100346.91
2022-11-09T01:39:21.900Z,100345.19
2022-11-09T01:41:49.210Z,100348.69
2022-11-09T01:44:18.832Z,100353.91
2022-11-09T01:46:51.627Z,100340.03
2022-11-09T01:49:30.569Z,100341.78
2022-11-09T01:52:04.565Z,100344.41
2022-11-09T01:54:37.512Z,100341.81
2022-11-09T01:57:09.287Z,100349.66
2022-11-09T01:59:42.308Z,100349.66
2022-11-09T02:02:09.699Z,100343.63
2022-11-09T02:04:47.674Z,100341.88
2022-11-09T02:07:15.034Z,100335.81
2022-11-09T02:10:03.288Z,100334.03
2022-11-09T02:12:33.537Z,100332.28
2022-11-09T02:15:03.663Z,100329.66
2022-11-09T02:17:32.693Z,100336.63
2022-11-09T02:20:00.323Z,100339.19
2022-11-09T02:22:28.712Z,100340.88
2022-11-09T02:24:56.601Z,100346.91
2022-11-09T02:27:24.626Z,100351.25
2022-11-09T02:29:53.366Z,100352.94
2022-11-09T02:32:22.989Z,100354.69
2022-11-09T02:34:51.531Z,100354.69
2022-11-09T02:37:36.028Z,100339.09
2022-11-09T02:40:08.026Z,100345.16
2022-11-09T02:42:35.421Z,100339.97
2022-11-09T02:45:02.397Z,100337.34
2022-11-09T02:47:29.816Z,100346.06
2022-11-09T02:49:58.075Z,100345.16
2022-11-09T02:52:26.984Z,100346.03
2022-11-09T02:54:54.622Z,100346.00
2022-11-09T02:57:21.589Z,100352.94
2022-11-09T02:59:49.842Z,100347.72
2022-11-09T03:02:17.124Z,100350.28
2022-11-09T03:04:44.022Z,100348.56
2022-11-09T03:07:12.059Z,100345.13
2022-11-09T03:09:39.760Z,100346.81
2022-11-09T03:12:25.897Z,100350.34
2022-11-09T03:14:53.331Z,100345.13
2022-11-09T03:17:20.351Z,100353.81
2022-11-09T03:19:47.253Z,100354.69
2022-11-09T03:22:14.243Z,100347.72
2022-11-09T03:24:45.190Z,100355.56
2022-11-09T03:27:12.916Z,100350.34
2022-11-09T03:29:40.061Z,100354.69
2022-11-09T03:32:07.706Z,100354.66
2022-11-09T03:34:35.565Z,100352.03
2022-11-09T03:37:02.599Z,100347.72
2022-11-09T03:39:29.996Z,100352.06
2022-11-09T03:41:56.964Z,100349.47
2022-11-09T03:44:25.660Z,100350.34
2022-11-09T03:46:52.659Z,100350.34
2022-11-09T03:49:19.784Z,100351.16
2022-11-09T03:51:46.598Z,100346.84
2022-11-09T03:54:13.512Z,100354.69
2022-11-09T03:56:41.322Z,100347.75
2022-11-09T03:59:08.344Z,100350.34
2022-11-09T04:01:35.344Z,100350.31
2022-11-09T04:04:02.424Z,100349.44
2022-11-09T04:06:29.575Z,100347.69
2022-11-09T04:08:56.576Z,100342.50
2022-11-09T04:11:24.341Z,100346.84
2022-11-09T04:13:51.321Z,100350.31
2022-11-09T04:16:18.428Z,100352.00
2022-11-09T04:18:45.443Z,100351.97
2022-11-09T04:21:12.455Z,100352.88
2022-11-09T04:23:39.561Z,100356.31
2022-11-09T04:26:06.559Z,100360.69
2022-11-09T04:28:33.712Z,100363.28
2022-11-09T04:31:02.217Z,100367.66
2022-11-09T04:33:29.538Z,100367.66
2022-11-09T04:36:02.533Z,100365.09
2022-11-09T04:38:29.547Z,100365.97
2022-11-09T04:41:01.288Z,100375.50
2022-11-09T04:43:29.120Z,100373.78
2022-11-09T04:46:00.035Z,100383.31
2022-11-09T04:48:27.155Z,100381.56
2022-11-09T04:51:00.496Z,100376.31
2022-11-09T04:53:28.179Z,100384.13
2022-11-09T04:55:55.416Z,100390.22
2022-11-09T04:58:25.068Z,100377.19
2022-11-09T05:00:54.250Z,100383.25
2022-11-09T05:03:22.111Z,100385.84
2022-11-09T05:05:49.474Z,100391.13
2022-11-09T05:08:16.823Z,100394.63
2022-11-09T05:10:43.776Z,100404.19
2022-11-09T05:13:13.610Z,100405.06
2022-11-09T05:15:41.487Z,100403.38
2022-11-09T05:18:10.518Z,100406.00
2022-11-09T05:20:37.615Z,100412.09
2022-11-09T05:23:23.910Z,100417.34
2022-11-09T05:25:51.475Z,100415.63
2022-11-09T05:28:18.598Z,100427.81
2022-11-09T05:30:45.872Z,100430.53
2022-11-09T05:33:13.031Z,100432.34
2022-11-09T05:35:40.133Z,100426.31
2022-11-09T05:38:07.386Z,100426.38
2022-11-09T05:40:35.025Z,100429.09
2022-11-09T05:43:02.091Z,100430.09
2022-11-09T05:45:42.487Z,100426.69
2022-11-09T05:48:11.374Z,100428.44
2022-11-09T05:50:39.378Z,100434.56
2022-11-09T05:53:27.047Z,100437.13
2022-11-09T05:55:54.277Z,100441.41
2022-11-09T05:58:21.432Z,100431.66
2022-11-09T06:00:48.495Z,100438.34
2022-11-09T06:03:15.636Z,100440.41
2022-11-09T06:05:42.658Z,100436.19
2022-11-09T06:08:15.884Z,100429.34
2022-11-09T06:10:43.728Z,100434.97
2022-11-09T06:13:11.040Z,100433.16
2022-11-09T06:15:38.067Z,100436.28
2022-11-09T06:18:05.053Z,100435.53
2022-11-09T06:20:33.422Z,100435.44
2022-11-09T06:23:03.978Z,100429.34
2022-11-09T06:25:33.271Z,100437.09
2022-11-09T06:28:01.095Z,100433.59
2022-11-09T06:30:28.559Z,100437.09
2022-11-09T06:33:00.274Z,100428.97
2022-11-09T06:35:27.534Z,100426.88
2022-11-09T06:37:56.817Z,100433.63
2022-11-09T06:40:24.091Z,100430.53
2022-11-09T06:42:51.400Z,100433.09
2022-11-09T06:45:18.562Z,100426.63
2022-11-09T06:47:45.499Z,100426.59
2022-11-09T06:50:12.646Z,100429.63
2022-11-09T06:52:39.633Z,100432.38
2022-11-09T06:55:08.552Z,100430.66
2022-11-09T06:57:35.530Z,100425.81
2022-11-09T07:00:03.155Z,100419.78
2022-11-09T07:02:30.692Z,100418.78
2022-11-09T07:04:57.883Z,100420.78
2022-11-09T07:07:27.919Z,100419.53
2022-11-09T07:09:55.998Z,100416.22
2022-11-09T07:12:23.241Z,100424.75
2022-11-09T07:14:50.305Z,100427.97
2022-11-09T07:17:17.849Z,100428.91
2022-11-09T07:19:44.799Z,100423.44
2022-11-09T07:22:11.756Z,100429.84
2022-11-09T07:24:38.816Z,100427.81
2022-11-09T07:27:06.009Z,100425.53
2022-11-09T07:29:33.186Z,100422.19
2022-11-09T07:32:00.586Z,100419.91
2022-11-09T07:34:27.959Z,100416.63
2022-11-09T07:36:54.944Z,100422.19
2022-11-09T07:39:22.099Z,100425.31
2022-11-09T07:41:49.365Z,100421.09
2022-11-09T07:44:18.937Z,100425.72
2022-11-09T07:46:50.383Z,100420.34
2022-11-09T07:49:18.376Z,100416.97
2022-11-09T07:51:45.441Z,100416.94
2022-11-09T07:54:12.665Z,100410.44
2022-11-09T07:56:39.684Z,100421.66
2022-11-09T07:59:06.851Z,100402.78
2022-11-09T08:01:34.416Z,100399.94
2022-11-09T08:04:01.561Z,100407.63
2022-11-09T08:06:28.934Z,100412.28
2022-11-09T08:08:55.935Z,100402.06
2022-11-09T08:11:23.024Z,100406.69
2022-11-09T08:13:51.073Z,100406.41
2022-11-09T08:16:18.261Z,100413.66
2022-11-09T08:18:45.505Z,100406.28
2022-11-09T08:21:12.753Z,100406.69
2022-11-09T08:23:39.988Z,100405.56
2022-11-09T08:26:07.488Z,100402.00
2022-11-09T08:28:35.192Z,100401.59
2022-11-09T08:31:04.815Z,100402.53
2022-11-09T08:33:36.379Z,100405.69
2022-11-09T08:36:10.165Z,100405.16
2022-11-09T08:38:37.086Z,100409.63
2022-11-09T08:41:05.477Z,100413.00
2022-11-09T08:43:35.637Z,100405.41
2022-11-09T08:46:02.688Z,100408.97
2022-11-09T08:48:29.670Z,100409.16
2022-11-09T08:50:59.802Z,100403.72
2022-11-09T08:53:28.695Z,100398.44
2022-11-09T08:55:56.495Z,100394.81
2022-11-09T08:58:23.826Z,100391.88
2022-11-09T09:00:50.991Z,100400.28
2022-11-09T09:03:18.299Z,100394.91
2022-11-09T09:05:45.332Z,100394.56
2022-11-09T09:08:15.475Z,100386.91
2022-11-09T09:10:43.079Z,100390.75
2022-11-09T09:13:10.518Z,100390.06
2022-11-09T09:15:37.572Z,100392.19
2022-11-09T09:18:05.208Z,100387.56
2022-11-09T09:20:33.088Z,100388.63
2022-11-09T09:23:00.934Z,100387.03
2022-11-09T09:25:28.544Z,100379.19
2022-11-09T09:27:56.000Z,100380.22
2022-11-09T09:30:23.293Z,100378.31
2022-11-09T09:32:50.232Z,100372.69
2022-11-09T09:35:17.783Z,100379.72
2022-11-09T09:37:44.926Z,100373.34
2022-11-09T09:40:26.359Z,100374.47
2022-11-09T09:42:55.080Z,100369.31
2022-11-09T09:45:26.232Z,100372.19
2022-11-09T09:48:00.650Z,100364.63
2022-11-09T09:50:38.381Z,100364.44
2022-11-09T09:53:24.168Z,100366.66
2022-11-09T09:56:11.257Z,100365.91
2022-11-09T09:58:46.171Z,100366.53
2022-11-09T10:01:22.910Z,100368.63
2022-11-09T10:03:50.973Z,100363.78
2022-11-09T10:06:48.715Z,100362.91
2022-11-09T10:09:46.093Z,100355.47
2022-11-09T10:12:18.907Z,100358.06
2022-11-09T10:15:09.213Z,100354.09
2022-11-09T10:17:54.963Z,100348.47
2022-11-09T10:20:42.912Z,100347.63
2022-11-09T10:23:26.674Z,100350.41
2022-11-09T10:26:19.061Z,100345.47
2022-11-09T10:29:15.033Z,100342.25
2022-11-09T10:31:41.433Z,100342.78
2022-11-09T10:34:22.871Z,100340.50
2022-11-09T10:37:10.792Z,100337.72
2022-11-09T10:39:46.972Z,100338.16
2022-11-09T10:42:32.442Z,100329.88
2022-11-09T10:45:29.092Z,100322.22
2022-11-09T10:48:14.834Z,100318.44
2022-11-09T10:51:00.858Z,100324.56
2022-11-09T10:53:46.493Z,100322.78
2022-11-09T10:57:05.606Z,100318.03
2022-11-09T10:59:55.125Z,100320.81
2022-11-09T11:02:44.397Z,100318.25
2022-11-09T11:05:31.614Z,100319.50
2022-11-09T11:08:40.389Z,100315.69
2022-11-09T11:11:35.043Z,100308.66
2022-11-09T11:14:33.984Z,100313.47
2022-11-09T11:17:27.712Z,100308.53
2022-11-09T11:20:30.352Z,100321.56
2022-11-09T11:23:20.079Z,100308.88
2022-11-09T11:26:31.760Z,100313.94
2022-11-09T11:29:25.797Z,100301.94
2022-11-09T11:32:17.760Z,100309.66
2022-11-09T11:35:14.301Z,100299.16
2022-11-09T11:38:32.832Z,100290.56
2022-11-09T11:41:49.439Z,100296.41
2022-11-09T11:45:12.531Z,100295.72
2022-11-09T11:48:21.748Z,100294.53
2022-11-09T11:51:31.914Z,100286.31
2022-11-09T11:54:22.988Z,100293.72
2022-11-09T11:57:20.505Z,100282.84
2022-11-09T12:00:18.736Z,100291.09
2022-11-09T12:03:15.911Z,100294.78
2022-11-09T12:06:04.881Z,100289.22
2022-11-09T12:09:24.421Z,100295.53
2022-11-09T12:12:28.399Z,100289.06
2022-11-09T12:15:23.799Z,100284.84
2022-11-09T12:18:38.478Z,100293.78
2022-11-09T12:21:32.850Z,100295.34
2022-11-09T12:24:57.134Z,100295.47
2022-11-09T12:28:00.774Z,100288.28
2022-11-09T12:30:58.745Z,100300.88
2022-11-09T12:34:01.581Z,100298.84
2022-11-09T12:36:59.566Z,100294.28
2022-11-09T12:39:53.115Z,100293.41
2022-11-09T12:42:48.481Z,100294.59
2022-11-09T12:45:39.272Z,100292.13
2022-11-09T12:48:29.408Z,100289.75
2022-11-09T12:51:16.097Z,100290.94
2022-11-09T12:54:10.288Z,100294.19
2022-11-09T12:56:59.846Z,100293.91
2022-11-09T12:59:51.403Z,100299.81
2022-11-09T13:02:55.394Z,100301.31
2022-11-09T13:05:43.245Z,100297.53
2022-11-09T13:08:31.212Z,100296.00
2022-11-09T13:11:17.113Z,100292.72
2022-11-09T13:14:30.345Z,100286.94
2022-11-09T13:17:25.114Z,100296.91
2022-11-09T13:26:47.383Z,100295.81
2022-11-09T13:29:41.923Z,100291.69
2022-11-09T13:32:35.289Z,100303.25
2022-11-09T13:35:46.549Z,100297.44
2022-11-09T13:38:33.918Z,100304.31
2022-11-09T13:41:34.382Z,100293.06
2022-11-09T13:44:32.631Z,100297.78
2022-11-09T13:47:32.593Z,100299.03
2022-11-09T13:50:25.031Z,100298.50
2022-11-09T13:53:39.280Z,100299.16
2022-11-09T13:56:30.618Z,100305.78
2022-11-09T13:59:24.107Z,100300.81
2022-11-09T14:02:24.163Z,100303.16
2022-11-09T14:05:39.625Z,100300.16
2022-11-09T14:08:29.112Z,100297.94
2022-11-09T18:06:55.372Z,100312.56
2022-11-09T18:09:42.060Z,100303.84
2022-11-09T18:12:28.476Z,100303.81
2022-11-09T18:15:14.270Z,100309.84
2022-11-09T18:18:00.146Z,100304.53
2022-11-09T18:20:46.197Z,100305.31
2022-11-09T18:23:32.268Z,100303.47
2022-11-09T18:26:18.131Z,100305.97
2022-11-09T18:29:04.319Z,100301.53
2022-11-09T18:31:50.254Z,100307.53
2022-11-09T18:34:36.041Z,100314.47
2022-11-09T18:37:22.063Z,100310.00
2022-11-09T18:40:08.699Z,100310.81
2022-11-09T18:42:54.768Z,100314.25
2022-11-09T18:45:40.795Z,100308.09
2022-11-09T18:48:27.282Z,100314.16
2022-11-09T18:51:13.552Z,100315.00
2022-11-09T18:53:59.741Z,100322.84
2022-11-09T18:56:46.495Z,100321.09
2022-11-09T18:59:32.576Z,100315.00
2022-11-09T19:02:18.744Z,100322.84
2022-11-09T19:05:06.958Z,100320.25
2022-11-09T19:07:52.571Z,100323.72
2022-11-09T19:10:38.701Z,100328.13
2022-11-09T19:13:24.707Z,100321.16
2022-11-09T19:16:12.703Z,100321.16
2022-11-09T19:18:58.675Z,100327.31
2022-11-09T19:21:52.492Z,100325.53
2022-11-09T19:24:38.382Z,100320.28
2022-11-09T19:27:25.297Z,100321.19
2022-11-09T19:30:11.449Z,100323.78
2022-11-09T19:32:57.140Z,100326.44
2022-11-09T19:35:42.969Z,100335.16
2022-11-09T19:38:28.907Z,100331.63
2022-11-09T19:41:15.297Z,100328.97
2022-11-09T19:44:01.505Z,100320.22
2022-11-09T19:46:47.078Z,100320.19
2022-11-09T19:49:32.868Z,100327.19
2022-11-09T19:52:18.811Z,100325.47
2022-11-09T19:55:05.803Z,100317.56
2022-11-09T19:57:51.647Z,100324.56
2022-11-09T20:00:37.694Z,100322.84
2022-11-09T20:03:23.528Z,100321.94
2022-11-09T20:06:09.972Z,100320.22
2022-11-09T20:08:56.165Z,100325.44
2022-11-09T20:12:00.794Z,100328.97
2022-11-09T20:14:46.618Z,100329.84
2022-11-09T20:17:32.452Z,100330.72
2022-11-09T20:20:18.366Z,100331.63
2022-11-09T20:23:04.158Z,100329.00
2022-11-09T20:25:49.705Z,100329.88
2022-11-09T20:28:35.767Z,100324.66
2022-11-09T20:31:22.534Z,100331.66
2022-11-09T20:34:08.373Z,100330.78
2022-11-09T20:36:54.218Z,100336.03
2022-11-09T20:39:41.138Z,100329.06
2022-11-09T20:42:26.843Z,100332.56
2022-11-09T20:45:12.483Z,100331.72
2022-11-09T20:48:10.567Z,100337.84
2022-11-09T20:51:09.100Z,100326.53
2022-11-09T20:53:54.778Z,100329.16
2022-11-09T20:56:40.776Z,100326.53
2022-11-09T20:59:26.332Z,100327.38
2022-11-09T21:02:18.147Z,100330.88
2022-11-09T21:05:04.462Z,100327.34
2022-11-09T21:07:51.101Z,100324.69
2022-11-09T21:10:37.023Z,100319.44
2022-11-09T21:13:23.345Z,100319.41
2022-11-09T21:16:12.609Z,100318.56
2022-11-09T21:18:58.478Z,100327.25
2022-11-09T21:21:44.597Z,100326.41
2022-11-09T21:24:49.576Z,100325.47
2022-11-09T21:27:54.287Z,100321.97
2022-11-09T21:30:40.076Z,100327.25
2022-11-09T21:33:25.962Z,100327.25
2022-11-09T21:36:13.900Z,100328.94
2022-11-09T21:39:01.351Z,100328.94
2022-11-09T21:41:47.310Z,100331.56
2022-11-09T21:44:34.758Z,100325.47
2022-11-09T21:47:20.209Z,100327.25
2022-11-09T21:50:12.122Z,100328.09
2022-11-09T21:52:58.184Z,100325.50
2022-11-09T21:55:43.777Z,100328.97
2022-11-09T21:58:29.634Z,100330.72
2022-11-09T22:01:18.477Z,100334.28
2022-11-09T22:04:05.006Z,100326.47
2022-11-09T22:06:50.714Z,100325.66
2022-11-09T22:10:06.064Z,100321.31
2022-11-09T22:13:00.725Z,100317.00
2022-11-09T22:16:05.200Z,100310.00
2022-11-09T22:19:09.686Z,100316.16
2022-11-09T22:21:55.323Z,100314.47
2022-11-09T22:24:41.162Z,100305.78
2022-11-09T22:27:26.677Z,100311.88
2022-11-09T22:30:12.783Z,100312.75
2022-11-09T22:32:59.151Z,100311.03
2022-11-09T22:35:44.787Z,100309.28
2022-11-09T22:38:34.022Z,100311.06
2022-11-09T22:41:20.182Z,100303.19
2022-11-09T22:44:05.812Z,100308.44
2022-11-09T22:46:51.506Z,100308.44
2022-11-09T22:49:37.474Z,100300.56
2022-11-09T22:52:22.942Z,100310.13
2022-11-09T22:55:09.050Z,100307.50
2022-11-09T22:57:56.036Z,100306.66
2022-11-09T23:00:42.132Z,100309.25
2022-11-09T23:03:27.783Z,100311.00
2022-11-09T23:06:19.603Z,100309.22
2022-11-09T23:09:05.727Z,100311.88
2022-11-09T23:11:51.608Z,100311.00
2022-11-09T23:14:56.506Z,100309.22
2022-11-09T23:18:01.138Z,100316.25
2022-11-09T23:20:48.345Z,100315.38
2022-11-09T23:23:34.192Z,100306.66
2022-11-09T23:26:21.041Z,100305.78
2022-11-09T23:29:06.690Z,100303.19
2022-11-09T23:31:52.189Z,100306.66
2022-11-09T23:34:37.714Z,100310.13
2022-11-09T23:37:23.345Z,100310.16
2022-11-09T23:40:09.720Z,100312.78
2022-11-09T23:43:03.632Z,100317.97
2022-11-09T23:45:49.507Z,100312.75
2022-11-09T23:48:35.032Z,100309.28
2022-11-09T23:51:20.593Z,100307.53
2022-11-09T23:54:06.623Z,100311.03
2022-11-09T23:56:58.545Z,100303.19
2022-11-09T23:59:44.504Z,100308.44
